Earl Gonsoulin — WDC3306 — position and weather

sailwx.info

Track history (hours):
 
Tides and Currents Weather Stations Pressure Air Temp Water Temp Dewpoint Dewpoint Depression Visibility Wind Speed Wind Dir Waves Ship Positions

Earl Gonsoulin

Owner: LeBeouf Bros. Towing, L.L.C., Houma, LA. More information available from US FCC via Universal Licensing System and Coast Guard Vessel Documentation Center.

Last reported at 2014-Nov-14 20:06 UTC. Time now 2014-Nov-23 14:36 UTC.
Position N 29°24' W 094°49'.
Warning: this ship's position is 8 days out of date.

Length 22 m.

Type: Towing. MMSI: 367005550.

Date/timePositionNaut miles runAvg speedWind from/ knotsBaromVisibWave heightAir tempDewpointWater temp
2014-Nov-14 20:06N 29°24' W 094°49'3 6.1
2014-Nov-14 19:33N 29°27' W 094°51'6 6.0
2014-Nov-14 18:33N 29°32' W 094°54'6 6.0
2014-Nov-14 17:33N 29°37' W 094°58'5 5.0
2014-Nov-14 16:33N 29°42' W 094°60'6 5.8
2014-Nov-14 15:33N 29°46' W 095°05'2 1.9
2014-Nov-14 14:33N 29°47' W 095°04'2 0.1
2014-Nov-12 23:10N 29°46' W 095°06'0 0.0
2014-Nov-11 17:16N 29°46' W 095°06'0 0.0
2014-Nov-11 16:24N 29°46' W 095°06'2 2.6
2014-Nov-11 15:33N 29°47' W 095°04'0 0.2
2014-Nov-11 14:31N 29°47' W 095°04'1 0.8
2014-Nov-11 13:33N 29°47' W 095°05'0 0.3
2014-Nov-11 12:33N 29°46' W 095°05'4 4.5
2014-Nov-11 11:34N 29°44' W 095°09'0 0.0
2014-Nov-10 17:33N 29°44' W 095°09'4 3.6
2014-Nov-10 16:33N 29°47' W 095°06'0 0.2
2014-Nov-10 15:27N 29°47' W 095°06'0 0.0
2014-Nov-10 14:33N 29°47' W 095°06'0 0.0
2014-Nov-10 13:29N 29°47' W 095°06'0 0.0
2014-Nov-09 19:22N 29°47' W 095°06'0 0.0
2014-Nov-09 18:20N 29°47' W 095°06'0 0.0
2014-Nov-09 17:33N 29°47' W 095°06'0 0.0
2014-Nov-09 16:32N 29°47' W 095°06'0 0.0
2014-Nov-09 15:31N 29°47' W 095°06'0 0.0
2014-Nov-09 14:23N 29°47' W 095°06'0 0.0
2014-Nov-09 13:31N 29°47' W 095°06'0 0.0
2014-Nov-09 08:22N 29°47' W 095°06'0 0.0
2014-Nov-08 23:28N 29°47' W 095°06'3 3.6
2014-Nov-08 22:33N 29°44' W 095°03'6 5.9
2014-Nov-08 21:33N 29°40' W 094°59'7 6.6
2014-Nov-08 20:34N 29°34' W 094°55'7 6.9
2014-Nov-08 19:33N 29°28' W 094°51'7 5.4
2014-Nov-08 18:18N 29°23' W 094°46'5 6.6
2014-Nov-08 17:32N 29°27' W 094°42'6 5.3
2014-Nov-08 16:29N 29°29' W 094°36'7 6.5
2014-Nov-08 15:28N 29°32' W 094°29'  
Track history (hours):
 
Tides and Currents Weather Stations Pressure Air Temp Water Temp Dewpoint Dewpoint Depression Visibility Wind Speed Wind Dir Waves Ship Positions

Earl Gonsoulin

Owner: LeBeouf Bros. Towing, L.L.C., Houma, LA. More information available from US FCC via Universal Licensing System and Coast Guard Vessel Documentation Center.

Last reported at 2014-Nov-14 20:06 UTC. Time now 2014-Nov-23 14:36 UTC.
Position N 29°24' W 094°49'.
Warning: this ship's position is 8 days out of date.

Length 22 m.

Type: Towing. MMSI: 367005550.

Date/timePositionNaut miles runAvg speedWind from/ knotsBaromVisibWave heightAir tempDewpointWater temp
2014-Nov-14 20:06N 29°24' W 094°49'3 6.1
2014-Nov-14 19:33N 29°27' W 094°51'6 6.0
2014-Nov-14 18:33N 29°32' W 094°54'6 6.0
2014-Nov-14 17:33N 29°37' W 094°58'5 5.0
2014-Nov-14 16:33N 29°42' W 094°60'6 5.8
2014-Nov-14 15:33N 29°46' W 095°05'2 1.9
2014-Nov-14 14:33N 29°47' W 095°04'2 0.1
2014-Nov-12 23:10N 29°46' W 095°06'0 0.0
2014-Nov-11 17:16N 29°46' W 095°06'0 0.0
2014-Nov-11 16:24N 29°46' W 095°06'2 2.6
2014-Nov-11 15:33N 29°47' W 095°04'0 0.2
2014-Nov-11 14:31N 29°47' W 095°04'1 0.8
2014-Nov-11 13:33N 29°47' W 095°05'0 0.3
2014-Nov-11 12:33N 29°46' W 095°05'4 4.5
2014-Nov-11 11:34N 29°44' W 095°09'0 0.0
2014-Nov-10 17:33N 29°44' W 095°09'4 3.6
2014-Nov-10 16:33N 29°47' W 095°06'0 0.2
2014-Nov-10 15:27N 29°47' W 095°06'0 0.0
2014-Nov-10 14:33N 29°47' W 095°06'0 0.0
2014-Nov-10 13:29N 29°47' W 095°06'0 0.0
2014-Nov-09 19:22N 29°47' W 095°06'0 0.0
2014-Nov-09 18:20N 29°47' W 095°06'0 0.0
2014-Nov-09 17:33N 29°47' W 095°06'0 0.0
2014-Nov-09 16:32N 29°47' W 095°06'0 0.0
2014-Nov-09 15:31N 29°47' W 095°06'0 0.0
2014-Nov-09 14:23N 29°47' W 095°06'0 0.0
2014-Nov-09 13:31N 29°47' W 095°06'0 0.0
2014-Nov-09 08:22N 29°47' W 095°06'0 0.0
2014-Nov-08 23:28N 29°47' W 095°06'3 3.6
2014-Nov-08 22:33N 29°44' W 095°03'6 5.9
2014-Nov-08 21:33N 29°40' W 094°59'7 6.6
2014-Nov-08 20:34N 29°34' W 094°55'7 6.9
2014-Nov-08 19:33N 29°28' W 094°51'7 5.4
2014-Nov-08 18:18N 29°23' W 094°46'5 6.6
2014-Nov-08 17:32N 29°27' W 094°42'6 5.3
2014-Nov-08 16:29N 29°29' W 094°36'7 6.5
2014-Nov-08 15:28N 29°32' W 094°29'  

Dump ship's entire track history